logo
Rechercher aéroport 
image banner adimage banner adimage banner ad
image banner ad

YXEA - Eadglehawk Neck Medical

Situé à , Australia

ICAO - , IATA -

Données fournies par Airmate  

Information générale

Coordonnées: S43°0'54" E147°55'32"
Élévation : 13 feet MSL.
 
Voir autres Aéroports à Tasmania

Données opérationnelles

Special qualification required
Heure actuelle UTC:
Heure actuelle locale:
Météo à : YMHB - Hobart ( 39 km )
TAF: TAF YMHB 251414Z 2515/2612 34006KT 9999 FEW045
Voir NOTAMs / SUP AIP / TFR affectant cet aéroport [VIEW]
Fréquences de communication: [VIEW]

Pistes:

Coordonnées de l'aéroport

Adresse: Australia

Vue satellite de YXEA